Time;durP1;ratioP1;P1;durP2;ratioP2;P2;SDS_P1;SDS_P2;PMS_P1;PMS_P2;Temp;Humidity;BMP_temperature;BMP_pressure;BME280_temperature;BME280_humidity;BME280_pressure;Samples;Min_cycle;Max_cycle;Signal;HPM_P1;HPM_P2
2022/03/03 00:01:55;;;;;;;23.70;18.08;;;;;;;2.24;59.48;101975.53;5062431;28;20665;-67
2022/03/03 00:04:21;;;;;;;24.42;17.77;;;;;;;2.20;59.10;101973.25;5062390;28;20040;-67
2022/03/03 00:06:46;;;;;;;26.55;18.15;;;;;;;2.15;59.68;101973.69;5062428;28;20036;-68
2022/03/03 00:09:11;;;;;;;22.88;17.50;;;;;;;2.12;58.61;101973.13;5061457;28;20353;-67
2022/03/03 00:11:38;;;;;;;26.38;18.25;;;;;;;2.06;59.98;101977.28;5062701;28;20017;-67
2022/03/03 00:14:04;;;;;;;22.88;17.63;;;;;;;2.05;59.51;101975.56;5061935;28;20032;-67
2022/03/03 00:16:29;;;;;;;24.33;18.27;;;;;;;1.95;60.51;101977.47;5061670;28;20021;-67
2022/03/03 00:18:54;;;;;;;25.42;18.60;;;;;;;1.89;61.04;101970.78;5061869;28;20452;-67
2022/03/03 00:21:20;;;;;;;25.65;18.55;;;;;;;1.81;60.83;101963.38;5061791;28;20346;-67
2022/03/03 00:23:45;;;;;;;27.35;19.50;;;;;;;1.76;62.33;101968.38;5062444;28;20044;-67
2022/03/03 00:26:10;;;;;;;28.27;20.13;;;;;;;1.71;61.05;101967.94;5062044;28;20021;-68
2022/03/03 00:28:36;;;;;;;27.58;20.40;;;;;;;1.70;61.01;101965.41;5061670;28;20016;-67
2022/03/03 00:31:02;;;;;;;26.45;19.25;;;;;;;1.65;62.60;101970.41;5061429;28;20099;-68
2022/03/03 00:33:28;;;;;;;27.80;20.35;;;;;;;1.61;62.54;101964.41;5061450;28;20036;-67
2022/03/03 00:35:53;;;;;;;26.98;19.77;;;;;;;1.52;62.51;101957.16;5062488;28;20033;-67
2022/03/03 00:38:18;;;;;;;25.75;18.88;;;;;;;1.47;62.75;101965.72;5061669;28;20028;-67
2022/03/03 00:40:44;;;;;;;27.38;20.15;;;;;;;1.42;63.35;101964.41;5061541;28;20025;-67
2022/03/03 00:43:09;;;;;;;25.48;19.70;;;;;;;1.40;63.20;101963.72;5060222;28;20045;-66
2022/03/03 00:45:36;;;;;;;24.92;19.08;;;;;;;1.38;63.40;101960.31;5061830;28;20307;-67
2022/03/03 00:48:03;;;;;;;30.02;20.50;;;;;;;1.33;63.85;101966.16;5061950;28;20028;-67
2022/03/03 00:50:28;;;;;;;27.08;20.60;;;;;;;1.35;63.51;101953.31;5061156;28;20660;-67
2022/03/03 00:52:54;;;;;;;29.00;20.65;;;;;;;1.30;64.15;101953.75;5061129;28;20056;-67
2022/03/03 00:55:19;;;;;;;29.17;21.27;;;;;;;1.31;63.40;101957.31;5061014;28;20032;-67
2022/03/03 00:57:45;;;;;;;29.15;20.65;;;;;;;1.27;63.80;101954.06;5060804;28;20118;-67
2022/03/03 01:00:11;;;;;;;28.52;19.70;;;;;;;1.23;64.11;101947.22;5061318;28;20079;-67
2022/03/03 01:02:36;;;;;;;29.52;19.70;;;;;;;1.15;64.34;101952.47;5060887;28;20036;-67
2022/03/03 01:05:03;;;;;;;26.67;19.67;;;;;;;1.10;64.99;101952.03;5061063;28;20048;-67
2022/03/03 01:07:29;;;;;;;26.15;18.77;;;;;;;1.08;64.50;101959.47;5060828;28;20033;-67
2022/03/03 01:09:54;;;;;;;27.05;20.05;;;;;;;1.04;65.74;101952.63;5061686;28;20039;-67
2022/03/03 01:12:19;;;;;;;26.50;20.25;;;;;;;1.00;66.32;101954.75;5060254;28;20008;-67
2022/03/03 01:14:45;;;;;;;26.90;19.80;;;;;;;0.95;66.89;101948.91;5060602;28;20078;-67
2022/03/03 01:17:10;;;;;;;29.35;20.08;;;;;;;0.90;67.52;101953.03;5060462;28;20016;-67
2022/03/03 01:19:35;;;;;;;26.80;19.70;;;;;;;0.84;67.23;101949.03;5061605;28;20051;-67
2022/03/03 01:22:01;;;;;;;29.85;20.27;;;;;;;0.81;67.12;101946.59;5060231;28;20021;-68
2022/03/03 01:24:26;;;;;;;26.52;20.23;;;;;;;0.82;67.15;101947.47;5060944;28;20379;-67
2022/03/03 01:26:52;;;;;;;26.33;19.52;;;;;;;0.78;66.48;101946.91;5059847;28;20047;-67
2022/03/03 01:29:17;;;;;;;27.02;20.10;;;;;;;0.78;66.39;101942.34;5061321;28;20059;-68
2022/03/03 01:31:43;;;;;;;28.13;19.52;;;;;;;0.73;67.95;101938.34;5060231;28;20020;-67
2022/03/03 01:34:08;;;;;;;29.35;20.35;;;;;;;0.64;67.89;101940.03;5061439;28;20028;-67
2022/03/03 01:36:35;;;;;;;28.38;21.40;;;;;;;0.61;68.45;101939.44;5061157;28;20041;-68
2022/03/03 01:39:00;;;;;;;28.83;20.48;;;;;;;0.56;67.52;101934.47;5060448;28;20435;-67
2022/03/03 01:41:25;;;;;;;29.67;20.67;;;;;;;0.56;67.61;101929.06;5060748;28;20055;-67
2022/03/03 01:43:50;;;;;;;28.65;20.45;;;;;;;0.51;69.08;101928.63;5060520;28;20017;-68
2022/03/03 01:46:16;;;;;;;27.83;20.40;;;;;;;0.47;69.17;101928.06;5059778;28;20173;-67
2022/03/03 01:48:43;;;;;;;30.75;21.27;;;;;;;0.44;69.53;101914.81;5060872;28;20536;-68
2022/03/03 01:51:08;;;;;;;29.45;21.13;;;;;;;0.40;69.11;101909.81;5060850;28;20020;-68
2022/03/03 01:53:33;;;;;;;29.30;22.13;;;;;;;0.39;69.34;101917.06;5061379;28;20051;-67
2022/03/03 01:55:59;;;;;;;29.50;21.23;;;;;;;0.34;69.33;101905.81;5060766;28;20032;-70
2022/03/03 01:58:24;;;;;;;30.77;21.80;;;;;;;0.34;68.88;101907.66;5059412;28;20052;-69
2022/03/03 02:00:51;;;;;;;28.48;20.45;;;;;;;0.33;69.80;101904.13;5060527;28;20031;-69
2022/03/03 02:03:16;;;;;;;30.05;21.77;;;;;;;0.34;69.14;101903.13;5060403;28;20032;-69
2022/03/03 02:05:42;;;;;;;29.83;21.90;;;;;;;0.30;69.13;101908.94;5060937;28;20021;-70
2022/03/03 02:08:07;;;;;;;29.15;21.77;;;;;;;0.28;69.63;101903.69;5060857;28;20020;-70
2022/03/03 02:10:32;;;;;;;28.15;21.08;;;;;;;0.17;70.17;101904.63;5059922;28;20056;-70
2022/03/03 02:12:57;;;;;;;31.50;21.77;;;;;;;0.12;69.99;101906.91;5060049;28;20119;-69
2022/03/03 02:15:23;;;;;;;32.15;22.70;;;;;;;0.08;70.40;101899.19;5060415;28;20090;-70
2022/03/03 02:17:49;;;;;;;32.28;23.02;;;;;;;0.04;70.93;101904.00;5058398;28;20027;-70
2022/03/03 02:20:18;;;;;;;34.83;22.35;;;;;;;0.05;70.59;101899.47;5059671;28;20024;-69
2022/03/03 02:22:44;;;;;;;34.00;23.20;;;;;;;-0.02;71.11;101900.00;5060093;28;20530;-69
2022/03/03 02:25:09;;;;;;;34.30;22.73;;;;;;;-0.03;71.99;101897.47;5060202;28;20509;-67
2022/03/03 02:27:34;;;;;;;32.63;22.95;;;;;;;-0.08;72.40;101897.88;5059895;28;20024;-69
2022/03/03 02:30:00;;;;;;;33.10;22.90;;;;;;;-0.09;72.47;101898.00;5060029;28;20495;-69
2022/03/03 02:32:25;;;;;;;30.85;21.83;;;;;;;-0.13;72.48;101897.41;5061227;28;20028;-69
2022/03/03 02:34:51;;;;;;;30.27;22.00;;;;;;;-0.11;72.05;101899.97;5064334;28;20035;-69
2022/03/03 02:37:16;;;;;;;31.33;21.27;;;;;;;-0.11;70.92;101892.72;5064028;28;20023;-69
2022/03/03 02:39:43;;;;;;;30.77;21.67;;;;;;;-0.09;71.45;101896.16;5063844;28;20427;-69
2022/03/03 02:42:09;;;;;;;28.85;22.20;;;;;;;-0.10;71.77;101891.75;5062596;28;20443;-69
2022/03/03 02:44:34;;;;;;;31.15;22.50;;;;;;;-0.11;72.21;101894.56;5064020;28;20344;-69
2022/03/03 02:46:59;;;;;;;30.50;23.08;;;;;;;-0.15;71.88;101894.00;5063941;28;20017;-69
2022/03/03 02:49:25;;;;;;;30.27;21.77;;;;;;;-0.14;72.32;101894.84;5063966;28;20036;-69
2022/03/03 02:51:50;;;;;;;32.67;23.58;;;;;;;-0.19;72.62;101889.84;5063251;28;20032;-70
2022/03/03 02:54:16;;;;;;;26.27;18.83;;;;;;;-0.31;73.88;101890.91;5063840;28;20107;-70
2022/03/03 02:59:25;;;;;;;27.42;19.85;;;;;;;-0.54;74.81;101890.25;5063934;28;20040;-69
2022/03/03 03:01:51;;;;;;;28.25;20.90;;;;;;;-0.59;75.47;101889.78;5063524;28;20025;-70
2022/03/03 03:04:16;;;;;;;26.85;19.55;;;;;;;-0.63;75.32;101889.19;5063118;28;20079;-69
2022/03/03 03:06:41;;;;;;;31.08;21.63;;;;;;;-0.65;75.34;101896.56;5063240;28;20044;-69
2022/03/03 03:09:07;;;;;;;30.35;20.80;;;;;;;-0.69;75.98;101895.13;5064229;28;20454;-69
2022/03/03 03:11:32;;;;;;;31.63;22.52;;;;;;;-0.73;75.76;101895.50;5062307;28;20032;-70
2022/03/03 03:13:57;;;;;;;30.58;22.42;;;;;;;-0.75;75.64;101892.94;5062699;28;20757;-69
2022/03/03 03:16:22;;;;;;;27.30;20.50;;;;;;;-0.73;75.52;101899.06;5061755;28;20472;-70
2022/03/03 03:18:48;;;;;;;30.15;22.30;;;;;;;-0.73;75.65;101885.56;5063898;28;20029;-69
2022/03/03 03:21:13;;;;;;;31.40;22.88;;;;;;;-0.74;75.06;101881.16;5063336;28;20029;-70
2022/03/03 03:23:38;;;;;;;33.33;22.10;;;;;;;-0.77;74.89;101875.16;5061623;28;20024;-66
2022/03/03 03:26:03;;;;;;;31.08;21.67;;;;;;;-0.80;74.43;101871.75;5063578;28;20012;-69
2022/03/03 03:28:29;;;;;;;30.42;21.85;;;;;;;-0.77;74.58;101873.31;5062215;28;20032;-69
2022/03/03 03:30:54;;;;;;;30.10;21.73;;;;;;;-0.74;74.54;101864.13;5062442;28;20033;-69
2022/03/03 03:33:19;;;;;;;32.33;21.58;;;;;;;-0.73;74.56;101866.69;5061483;28;20071;-69
2022/03/03 03:35:45;;;;;;;28.58;20.63;;;;;;;-0.77;74.87;101864.38;5062985;28;20592;-69
2022/03/03 03:38:10;;;;;;;30.10;22.05;;;;;;;-0.82;75.28;101867.47;5062817;28;20036;-69
2022/03/03 03:40:36;;;;;;;33.25;23.45;;;;;;;-0.84;75.25;101877.53;5062894;28;20029;-69
2022/03/03 03:43:01;;;;;;;35.28;23.25;;;;;;;-0.87;75.25;101864.31;5061427;28;20021;-69
2022/03/03 03:45:26;;;;;;;32.58;23.30;;;;;;;-0.88;74.86;101862.59;5062278;28;20282;-69
2022/03/03 03:47:52;;;;;;;32.50;23.48;;;;;;;-0.86;74.66;101866.06;5062552;28;20426;-69
2022/03/03 03:50:17;;;;;;;33.50;24.00;;;;;;;-0.83;74.24;101863.06;5062865;28;20051;-70
2022/03/03 03:52:42;;;;;;;32.80;22.88;;;;;;;-0.82;74.02;101862.06;5062537;28;20059;-69
2022/03/03 03:55:10;;;;;;;30.67;22.75;;;;;;;-0.83;74.62;101852.28;5062591;28;20031;-69
2022/03/03 03:57:35;;;;;;;33.88;24.00;;;;;;;-0.81;73.77;101851.19;5062058;28;20040;-69
2022/03/03 04:00:05;;;;;;;33.95;21.92;;;;;;;-0.84;74.18;101845.19;5063030;28;20025;-69
2022/03/03 04:02:30;;;;;;;32.00;24.02;;;;;;;-0.89;74.14;101850.97;5061723;28;20033;-69
2022/03/03 04:04:55;;;;;;;34.63;22.98;;;;;;;-0.91;74.51;101852.06;5062175;28;20557;-70
2022/03/03 04:07:21;;;;;;;34.10;23.73;;;;;;;-0.91;75.12;101860.16;5061879;28;20021;-69
2022/03/03 04:09:46;;;;;;;33.92;22.42;;;;;;;-0.92;74.76;101851.22;5062545;28;20395;-69
2022/03/03 04:12:11;;;;;;;34.10;23.98;;;;;;;-0.93;74.86;101863.00;5060873;28;20035;-69
2022/03/03 04:14:37;;;;;;;34.35;23.58;;;;;;;-0.95;74.20;101862.28;5063021;28;20012;-69
2022/03/03 04:17:02;;;;;;;34.25;23.00;;;;;;;-0.94;74.12;101853.22;5061716;28;20021;-69
2022/03/03 04:19:28;;;;;;;31.35;22.40;;;;;;;-0.90;74.88;101843.03;5061411;28;20056;-69
2022/03/03 04:21:53;;;;;;;35.45;23.50;;;;;;;-0.90;74.29;101840.31;5062930;28;20052;-69
2022/03/03 04:24:18;;;;;;;29.48;22.00;;;;;;;-0.88;74.08;101836.50;5062162;28;20020;-69
2022/03/03 04:26:44;;;;;;;34.30;24.23;;;;;;;-0.87;74.13;101838.19;5060955;28;20056;-69
2022/03/03 04:29:09;;;;;;;33.72;23.35;;;;;;;-0.85;73.41;101838.09;5061561;28;20040;-68
2022/03/03 04:31:35;;;;;;;34.67;23.23;;;;;;;-0.85;72.93;101833.53;5062088;28;20082;-69
2022/03/03 04:34:01;;;;;;;36.40;24.92;;;;;;;-0.84;72.87;101831.69;5062298;28;20047;-69
2022/03/03 04:36:26;;;;;;;36.13;24.23;;;;;;;-0.86;73.21;101828.28;5061577;28;20020;-69
2022/03/03 04:38:52;;;;;;;37.42;25.25;;;;;;;-0.87;73.52;101821.16;5062350;28;20077;-69
2022/03/03 04:41:17;;;;;;;36.72;25.35;;;;;;;-0.88;73.74;101825.72;5060360;28;20339;-69
2022/03/03 04:43:43;;;;;;;37.90;25.95;;;;;;;-0.88;73.27;101820.31;5062171;28;20095;-69
2022/03/03 04:46:08;;;;;;;40.22;24.45;;;;;;;-0.91;73.55;101815.22;5061410;28;20029;-67
2022/03/03 04:48:34;;;;;;;33.47;23.15;;;;;;;-0.91;74.19;101817.00;5061988;28;20392;-69
2022/03/03 04:50:59;;;;;;;33.40;23.60;;;;;;;-0.94;74.24;101810.06;5061547;28;20024;-69
2022/03/03 04:53:25;;;;;;;34.45;23.45;;;;;;;-0.95;73.95;101813.75;5061164;28;20502;-69
2022/03/03 04:55:51;;;;;;;33.55;23.60;;;;;;;-0.94;73.85;101814.59;5061867;28;20035;-69
2022/03/03 04:58:17;;;;;;;35.15;22.77;;;;;;;-0.96;73.93;101816.56;5060434;28;20028;-69
2022/03/03 05:00:42;;;;;;;37.08;24.63;;;;;;;-1.01;74.30;101814.28;5060424;28;20083;-70
2022/03/03 05:03:07;;;;;;;36.10;24.90;;;;;;;-1.02;74.68;101827.88;5061932;28;20023;-69
2022/03/03 05:05:32;;;;;;;35.05;24.85;;;;;;;-1.06;74.80;101813.81;5061208;28;20048;-69
2022/03/03 05:07:58;;;;;;;33.65;24.17;;;;;;;-1.07;74.73;101825.56;5061173;28;20498;-70
2022/03/03 05:10:23;;;;;;;37.95;24.50;;;;;;;-1.08;74.81;101824.72;5060760;28;20036;-67
2022/03/03 05:12:48;;;;;;;33.53;23.75;;;;;;;-1.09;74.91;101828.41;5060678;28;20024;-67
2022/03/03 05:15:13;;;;;;;35.78;24.38;;;;;;;-1.10;74.72;101826.69;5060030;28;20071;-67
2022/03/03 05:17:39;;;;;;;32.47;23.98;;;;;;;-1.11;74.09;101825.00;5060309;28;20040;-67
2022/03/03 05:20:06;;;;;;;33.95;22.98;;;;;;;-1.10;74.71;101828.56;5061275;28;20016;-67
2022/03/03 05:22:31;;;;;;;36.03;24.30;;;;;;;-1.13;74.34;101820.72;5060697;28;20130;-67
2022/03/03 05:24:57;;;;;;;34.47;23.95;;;;;;;-1.15;74.16;101815.47;5061012;28;20033;-67
2022/03/03 05:27:22;;;;;;;31.10;22.80;;;;;;;-1.16;74.49;101821.00;5060256;28;20059;-67
2022/03/03 05:29:47;;;;;;;33.13;24.38;;;;;;;-1.23;74.96;101825.16;5061203;28;20433;-67
2022/03/03 05:32:13;;;;;;;37.22;24.08;;;;;;;-1.25;75.13;101824.47;5060271;28;20540;-67
2022/03/03 05:34:38;;;;;;;36.53;24.85;;;;;;;-1.28;75.03;101833.66;5061339;28;20036;-68
2022/03/03 05:37:06;;;;;;;38.10;24.75;;;;;;;-1.29;75.55;101833.78;5061418;28;20134;-68
2022/03/03 05:39:31;;;;;;;37.97;24.27;;;;;;;-1.29;75.41;101829.25;5060646;28;20103;-67
2022/03/03 05:41:56;;;;;;;35.97;23.30;;;;;;;-1.29;75.57;101833.78;5059331;28;20178;-67
2022/03/03 05:44:24;;;;;;;33.58;21.90;;;;;;;-1.20;74.65;101836.56;5060464;28;20020;-67
2022/03/03 05:46:50;;;;;;;32.72;22.58;;;;;;;-1.20;74.75;101831.16;5060725;28;20054;-67
2022/03/03 05:49:19;;;;;;;36.15;23.35;;;;;;;-1.24;75.29;101835.09;5060275;28;20027;-67
2022/03/03 05:51:44;;;;;;;;;;;;;;;-1.19;73.48;101830.19;5061413;28;20047;-67
2022/03/03 05:54:09;;;;;;;35.08;22.85;;;;;;;-1.24;74.39;101827.00;5060359;28;20382;-64
2022/03/03 05:56:38;;;;;;;32.47;22.90;;;;;;;-1.28;74.57;101822.88;5059829;28;20583;-68
2022/03/03 05:59:06;;;;;;;33.72;24.35;;;;;;;-1.28;74.18;101822.88;5061038;28;20101;-67
2022/03/03 06:01:31;;;;;;;34.28;23.50;;;;;;;-1.30;74.79;101819.47;5059864;28;20052;-67
2022/03/03 06:03:59;;;;;;;35.88;24.10;;;;;;;-1.28;75.03;101824.72;5059264;28;20076;-68
2022/03/03 06:06:28;;;;;;;35.88;23.20;;;;;;;-1.33;75.32;101819.69;5062298;28;20020;-68
2022/03/03 06:09:10;;;;;;;34.08;22.88;;;;;;;-1.35;75.68;101822.53;5067693;28;20022;-67
2022/03/03 06:12:06;;;;;;;32.63;22.63;;;;;;;-1.36;75.43;101828.06;5066525;28;20028;-68
2022/03/03 06:15:03;;;;;;;34.03;23.50;;;;;;;-1.32;74.73;101821.41;5065507;28;20732;-67
2022/03/03 06:17:30;;;;;;;34.50;23.65;;;;;;;-1.36;75.61;101831.63;5054465;28;20474;-67
2022/03/03 06:19:58;;;;;;;32.17;22.75;;;;;;;-1.47;76.55;101820.88;5067134;28;20063;-68
2022/03/03 06:22:23;;;;;;;;;;;;;;;-1.47;74.52;101820.00;5067468;28;20052;-67
2022/03/03 06:24:49;;;;;;;36.93;23.73;;;;;;;-1.60;76.67;101825.56;5066867;28;19974;-67
2022/03/03 06:27:15;;;;;;;33.15;24.27;;;;;;;-1.62;76.64;101825.72;5065821;28;20024;-67
2022/03/03 06:29:40;;;;;;;34.50;23.77;;;;;;;-1.66;77.01;101826.09;5067216;28;20027;-67
2022/03/03 06:32:07;;;;;;;35.22;25.05;;;;;;;-1.73;77.42;101825.72;5067204;28;20036;-67
2022/03/03 06:34:32;;;;;;;33.65;24.00;;;;;;;-1.75;77.83;101819.63;5066278;28;20020;-68
2022/03/03 06:36:58;;;;;;;38.05;23.85;;;;;;;-1.71;77.44;101826.47;5067060;28;20400;-67
2022/03/03 06:39:23;;;;;;;34.22;24.83;;;;;;;-1.66;76.91;101829.63;5066799;28;20429;-67
2022/03/03 06:41:48;;;;;;;37.10;23.95;;;;;;;-1.60;76.61;101822.88;5066274;28;20351;-66
2022/03/03 06:44:14;;;;;;;35.05;24.45;;;;;;;-1.55;76.61;101830.59;5066685;28;20028;-67
2022/03/03 06:46:39;;;;;;;35.55;23.85;;;;;;;-1.51;76.35;101837.44;5066653;28;20023;-67
2022/03/03 06:49:05;;;;;;;36.80;25.40;;;;;;;-1.46;76.12;101838.75;5067492;28;20166;-67
2022/03/03 06:51:39;;;;;;;41.17;24.30;;;;;;;-1.36;75.79;101836.16;5066495;28;20033;-67
2022/03/03 06:54:06;;;;;;;37.30;23.42;;;;;;;-1.20;75.75;101835.72;5067464;28;20115;-67
2022/03/03 06:56:34;;;;;;;33.10;23.85;;;;;;;-0.79;75.33;101830.31;5065880;28;20054;-67
2022/03/03 06:59:01;;;;;;;34.88;24.38;;;;;;;-0.37;74.45;101841.03;5066698;28;20108;-67
2022/03/03 07:01:28;;;;;;;36.08;24.58;;;;;;;-0.29;72.70;101840.38;5066080;28;20093;-68
2022/03/03 07:03:57;;;;;;;31.73;22.50;;;;;;;-0.34;73.14;101840.78;5066815;28;20059;-68
2022/03/03 07:06:23;;;;;;;36.95;25.33;;;;;;;-0.35;72.58;101843.63;5066176;28;20028;-68
2022/03/03 07:08:53;;;;;;;34.50;22.52;;;;;;;-0.40;72.88;101848.56;5066780;28;20101;-68
2022/03/03 07:11:18;;;;;;;38.92;24.00;;;;;;;-0.39;72.55;101851.13;5064983;28;20033;-68
2022/03/03 07:13:44;;;;;;;37.90;24.17;;;;;;;-0.32;73.24;101854.13;5066228;28;20028;-68
2022/03/03 07:16:20;;;;;;;37.55;24.27;;;;;;;-0.24;72.52;101851.63;5066306;28;20074;-66
2022/03/03 07:18:50;;;;;;;35.10;23.73;;;;;;;-0.16;72.34;101846.38;5064646;28;20231;-68
2022/03/03 07:21:24;;;;;;;32.92;23.63;;;;;;;-0.03;72.43;101843.44;5062587;28;20334;-68
2022/03/03 07:24:02;;;;;;;41.03;23.88;;;;;;;0.19;72.49;101842.38;5063317;28;20390;-68
2022/03/03 07:26:30;;;;;;;33.22;23.70;;;;;;;0.50;71.43;101845.81;5061732;28;20028;-68
2022/03/03 07:29:01;;;;;;;35.38;23.02;;;;;;;0.90;70.65;101842.13;5063437;28;20028;-68
2022/03/03 07:31:29;;;;;;;36.58;23.30;;;;;;;1.19;70.16;101847.53;5062627;28;20186;-68
2022/03/03 07:34:06;;;;;;;32.80;22.80;;;;;;;1.42;68.58;101843.50;5061403;28;20032;-68
2022/03/03 07:36:37;;;;;;;32.47;23.23;;;;;;;1.60;67.26;101840.00;5063156;28;20044;-68
2022/03/03 07:39:05;;;;;;;33.97;21.98;;;;;;;1.73;66.46;101835.13;5063088;28;20028;-68
2022/03/03 07:41:30;;;;;;;33.67;23.35;;;;;;;1.76;65.97;101834.81;5061928;28;20036;-68
2022/03/03 07:43:58;;;;;;;37.13;23.33;;;;;;;1.75;65.33;101843.94;5063051;28;20020;-68
2022/03/03 07:46:25;;;;;;;32.87;22.90;;;;;;;1.74;65.93;101844.94;5061667;28;20107;-69
2022/03/03 07:48:53;;;;;;;37.90;23.92;;;;;;;1.78;66.43;101843.66;5061579;28;20059;-68
2022/03/03 07:51:18;;;;;;;30.65;22.42;;;;;;;1.98;65.61;101839.84;5062420;28;20368;-68
2022/03/03 07:53:44;;;;;;;34.47;22.38;;;;;;;2.32;65.30;101842.78;5062741;28;20035;-68
2022/03/03 07:56:12;;;;;;;35.78;23.23;;;;;;;2.71;64.96;101847.09;5061555;28;20111;-64
2022/03/03 07:58:41;;;;;;;35.58;22.10;;;;;;;2.94;62.90;101855.59;5062988;28;20483;-68
2022/03/03 08:01:08;;;;;;;32.72;21.88;;;;;;;3.00;63.30;101853.13;5062242;28;20485;-69
2022/03/03 08:03:34;;;;;;;30.95;22.05;;;;;;;3.27;61.63;101848.59;5063041;28;20037;-68
2022/03/03 08:06:00;;;;;;;33.33;21.95;;;;;;;3.56;60.35;101854.56;5062302;28;20047;-68
2022/03/03 08:08:28;;;;;;;32.63;21.52;;;;;;;3.68;60.24;101854.28;5061375;28;20021;-69
2022/03/03 08:11:00;;;;;;;31.03;22.80;;;;;;;3.88;59.27;101862.03;5061472;28;20055;-68
2022/03/03 08:13:28;;;;;;;35.00;21.02;;;;;;;4.07;59.02;101850.06;5062188;28;20354;-68
2022/03/03 08:15:54;;;;;;;31.48;21.08;;;;;;;4.45;57.50;101855.13;5062227;28;20028;-67
2022/03/03 08:18:20;;;;;;;31.90;21.45;;;;;;;4.91;55.41;101857.22;5062552;28;20486;-67
2022/03/03 08:20:46;;;;;;;31.88;21.67;;;;;;;5.60;54.62;101844.09;5061855;28;20101;-69
2022/03/03 08:23:11;;;;;;;34.25;21.52;;;;;;;5.70;52.85;101846.63;5061989;28;20115;-68
2022/03/03 08:25:37;;;;;;;31.40;20.98;;;;;;;6.21;52.13;101853.47;5061263;28;20032;-68
2022/03/03 08:28:04;;;;;;;31.92;21.52;;;;;;;7.15;50.36;101850.66;5062767;28;20012;-68
2022/03/03 08:30:30;;;;;;;27.33;20.02;;;;;;;7.76;46.49;101848.69;5061657;28;20047;-69
2022/03/03 08:33:13;;;;;;;28.83;20.27;;;;;;;8.30;47.68;101843.75;5061948;28;20029;-68
2022/03/03 08:35:41;;;;;;;29.25;19.75;;;;;;;8.51;44.31;101844.88;5062043;28;20095;-66
2022/03/03 08:38:15;;;;;;;30.85;20.58;;;;;;;8.59;44.83;101842.03;5061862;28;20556;-68
2022/03/03 08:40:44;;;;;;;29.33;19.92;;;;;;;8.64;43.69;101845.03;5060534;28;20032;-67
2022/03/03 08:43:13;;;;;;;29.23;19.63;;;;;;;8.98;43.83;101838.00;5061707;28;20395;-65
2022/03/03 08:45:39;;;;;;;27.90;19.80;;;;;;;9.29;42.22;101843.16;5059887;28;20046;-67
2022/03/03 08:48:06;;;;;;;27.60;18.77;;;;;;;9.06;42.00;101837.88;5062134;28;20028;-68
2022/03/03 08:50:35;;;;;;;30.17;20.53;;;;;;;8.92;44.11;101847.00;5061142;28;20033;-67
2022/03/03 08:53:01;;;;;;;;;;;;;;;8.80;46.46;101844.78;5061978;28;20055;-68
2022/03/03 08:55:27;;;;;;;30.38;19.20;;;;;;;8.65;43.13;101835.75;5061121;28;19955;-68
2022/03/03 08:57:53;;;;;;;29.35;18.80;;;;;;;8.82;43.04;101831.75;5062174;28;20425;-68
2022/03/03 09:00:19;;;;;;;25.20;18.13;;;;;;;9.39;42.49;101829.09;5060979;28;20120;-68
2022/03/03 09:02:46;;;;;;;24.08;17.73;;;;;;;10.39;39.44;101829.50;5060624;28;20052;-68
2022/03/03 09:05:12;;;;;;;26.33;18.53;;;;;;;10.84;39.04;101831.72;5060929;28;20079;-67
2022/03/03 09:07:38;;;;;;;27.73;17.75;;;;;;;11.90;37.01;101832.59;5062015;28;20637;-67
2022/03/03 09:10:05;;;;;;;28.17;17.55;;;;;;;12.61;34.80;101828.91;5061727;28;20629;-67
2022/03/03 09:12:30;;;;;;;25.38;17.08;;;;;;;13.38;33.07;101829.72;5058656;28;20479;-68
2022/03/03 09:14:56;;;;;;;26.58;17.88;;;;;;;14.02;32.54;101824.81;5061326;28;20149;-67
2022/03/03 09:17:21;;;;;;;26.50;17.42;;;;;;;14.38;31.08;101828.63;5060309;28;20027;-67
2022/03/03 09:19:47;;;;;;;24.23;15.65;;;;;;;14.90;30.55;101829.00;5061413;28;20059;-67
2022/03/03 09:22:13;;;;;;;23.58;17.02;;;;;;;15.70;28.99;101825.81;5060839;28;20032;-67
2022/03/03 09:24:38;;;;;;;23.73;16.63;;;;;;;16.29;29.41;101818.25;5060629;28;20038;-65
2022/03/03 09:27:04;;;;;;;22.05;16.13;;;;;;;16.75;27.59;101821.97;5060523;28;20375;-65
2022/03/03 09:29:33;;;;;;;24.55;17.77;;;;;;;16.98;27.43;101821.00;5061038;28;20542;-65
2022/03/03 09:31:59;;;;;;;22.98;16.92;;;;;;;17.80;26.89;101818.53;5060389;28;20168;-65
2022/03/03 09:34:24;;;;;;;24.63;16.80;;;;;;;18.06;26.23;101810.56;5061227;28;20392;-66
2022/03/03 09:36:49;;;;;;;22.08;16.73;;;;;;;18.10;25.91;101815.34;5060766;28;20057;-68
2022/03/03 09:39:15;;;;;;;24.38;16.88;;;;;;;18.37;24.68;101817.34;5060693;28;20025;-67
2022/03/03 09:41:40;;;;;;;21.92;16.92;;;;;;;18.76;24.21;101814.50;5058910;28;20347;-67
2022/03/03 09:44:05;;;;;;;23.45;17.65;;;;;;;19.04;24.42;101807.81;5061729;28;20072;-67
2022/03/03 09:46:30;;;;;;;22.92;17.15;;;;;;;19.22;23.34;101815.78;5060297;28;20078;-68
2022/03/03 09:48:56;;;;;;;24.23;17.13;;;;;;;19.11;24.37;101812.06;5060717;28;20266;-67
2022/03/03 09:51:21;;;;;;;25.88;17.92;;;;;;;19.51;24.04;101810.69;5060753;28;20464;-67
2022/03/03 09:53:49;;;;;;;25.75;19.25;;;;;;;19.69;23.54;101813.09;5060847;28;20032;-67
2022/03/03 09:56:14;;;;;;;;;;;;;;;20.60;26.58;101816.66;5060182;28;20032;-67
2022/03/03 09:58:40;;;;;;;22.73;17.30;;;;;;;20.19;23.27;101810.88;5060679;28;20275;-67
2022/03/03 10:01:07;;;;;;;27.40;17.02;;;;;;;20.33;22.03;101817.66;5060649;28;20025;-67
2022/03/03 10:03:35;;;;;;;23.23;17.15;;;;;;;20.78;21.65;101812.50;5059244;28;20391;-67
2022/03/03 10:06:01;;;;;;;24.55;17.85;;;;;;;21.31;22.20;101810.38;5060706;28;20228;-67
2022/03/03 10:08:28;;;;;;;22.30;17.80;;;;;;;20.95;20.83;101805.56;5060650;28;20025;-66
2022/03/03 10:10:59;;;;;;;19.10;16.67;;;;;;;20.72;22.30;101814.44;5059804;28;20539;-67
2022/03/03 10:13:26;;;;;;;25.83;18.80;;;;;;;20.78;21.23;101807.75;5060364;28;20036;-67
2022/03/03 10:15:57;;;;;;;23.45;18.98;;;;;;;20.59;21.69;101804.66;5060622;28;20045;-67
2022/03/03 10:18:24;;;;;;;25.92;18.13;;;;;;;20.63;21.03;101808.59;5059360;28;20343;-66
2022/03/03 10:20:53;;;;;;;23.45;18.08;;;;;;;20.17;21.27;101797.22;5060464;28;20505;-66
2022/03/03 10:23:23;;;;;;;26.58;19.30;;;;;;;20.54;21.31;101804.66;5060693;28;20441;-66
2022/03/03 10:25:52;;;;;;;24.88;18.65;;;;;;;21.13;21.41;101792.16;5059669;28;20025;-67
2022/03/03 10:28:21;;;;;;;25.08;18.58;;;;;;;21.38;21.87;101789.41;5060505;28;20032;-67
2022/03/03 10:30:53;;;;;;;22.33;18.05;;;;;;;21.93;19.46;101790.44;5059892;28;20452;-66
2022/03/03 10:33:21;;;;;;;25.75;18.55;;;;;;;22.13;19.97;101792.34;5060395;28;20040;-67
2022/03/03 10:36:00;;;;;;;24.25;17.98;;;;;;;22.61;20.96;101789.91;5060841;28;20020;-66
2022/03/03 10:38:25;;;;;;;22.55;18.13;;;;;;;22.51;19.21;101787.16;5060180;28;20040;-66
2022/03/03 10:40:50;;;;;;;21.98;17.60;;;;;;;22.25;19.28;101792.00;5059073;28;20193;-66
2022/03/03 10:43:15;;;;;;;22.85;18.52;;;;;;;22.64;19.16;101786.50;5060493;28;20475;-66
2022/03/03 10:45:59;;;;;;;27.20;19.38;;;;;;;22.61;21.14;101795.50;5059572;28;20032;-66
2022/03/03 10:48:26;;;;;;;23.02;18.02;;;;;;;22.47;18.65;101795.28;5060079;28;20021;-66
2022/03/03 10:50:54;;;;;;;24.23;18.25;;;;;;;21.77;19.48;101795.22;5060129;28;20048;-66
2022/03/03 10:53:23;;;;;;;23.10;17.73;;;;;;;21.58;19.54;101782.94;5061382;28;20032;-66
2022/03/03 10:56:08;;;;;;;21.13;17.40;;;;;;;21.73;20.24;101785.72;5063220;28;20036;-65
2022/03/03 10:58:53;;;;;;;21.52;17.13;;;;;;;21.37;19.99;101784.09;5064696;28;20683;-66
2022/03/03 11:01:22;;;;;;;24.13;18.08;;;;;;;21.18;20.02;101786.59;5063363;28;20029;-65
2022/03/03 11:03:51;;;;;;;22.95;17.00;;;;;;;21.28;19.40;101783.78;5062544;28;20041;-66
2022/03/03 11:06:22;;;;;;;23.98;17.42;;;;;;;20.96;19.39;101782.09;5063767;28;20036;-65
2022/03/03 11:08:49;;;;;;;22.60;17.30;;;;;;;20.81;20.30;101778.47;5063982;28;20027;-66
2022/03/03 11:11:15;;;;;;;24.05;18.65;;;;;;;20.99;19.18;101783.53;5062656;28;20028;-66
2022/03/03 11:13:40;;;;;;;24.65;18.33;;;;;;;21.27;20.26;101779.31;5064137;28;20086;-65
2022/03/03 11:16:07;;;;;;;22.63;17.23;;;;;;;21.39;20.03;101781.84;5063558;28;20039;-66